• Join FlightAware (Why Join?)
  • Login
  • US Flag 
12:00AM EST


 

Airport Tracker/Info


-or-


 

Live Flight TrackerFlight Track Log ✈ GGN7280 ✈ 30-Apr-2014 ✈ CYYZ - KROC

Flight Track Log - Related Links

Times and Time Zones

All times are in EDT time to prevent confusion due to time zone crossing. See the GGN7280 flight status page for this flight to view local times or setup timezone preferences in your user account.

Time Position Orientation Groundspeed Altitude Reporting Facility
EDT Latitude Longitude Course Direction KTS MPH feet Rate Location/Type
07:03PM 43.6667 -79.5833 90° East 120 138 1,000  Level Toronto Center
07:04PM 43.6667 -79.5333 99° East 160 184 2,300 1,200 Climbing Toronto Center
07:05PM 43.6500 -79.4667 109° East 180 207 3,400 1,080 Climbing Toronto Center
07:06PM 43.6167 -79.4000 125° Southeast 200 230 4,500 780 Climbing Toronto Center
07:07PM 43.5833 -79.3333 125° Southeast 200 230 5,000 900 Climbing Toronto Center
07:08PM 43.5500 -79.2667 125° Southeast 220 253 6,300 1,260 Climbing Toronto Center
07:09PM 43.5333 -79.2000 109° East 210 242 7,600 1,140 Climbing Toronto Center
07:10PM 43.5000 -79.1333 125° Southeast 210 242 8,600 660 Climbing Toronto Center
07:11PM 43.4667 -79.0667 125° Southeast 240 276 9,000 180 Climbing Toronto Center
07:12PM 43.4333 -78.9500 111° Southeast 260 299 9,000  Level Toronto Center
07:13PM 43.4000 -78.8833 125° Southeast 260 299 9,000  Level Toronto Center
07:15PM 43.3547 -78.7744 120° Southeast 256 295 9,000  Level Cleveland Center
07:16PM 43.3172 -78.6936 123° Southeast 255 293 9,000 -240 Level Cleveland Center
07:17PM 43.2711 -78.6003 124° Southeast 250 288 8,500 -960 Descending Cleveland Center
07:18PM 43.2350 -78.5186 121° Southeast 260 299 7,100 -1,560 Descending Cleveland Center
07:19PM 43.2011 -78.4278 117° Southeast 260 299 5,300 -1,020 Descending Cleveland Center
07:20PM 43.1944 -78.3314 95° East 257 296 5,000 -120 Descending Cleveland Center
07:21PM 43.1828 -78.2331 99° East 243 280 5,100  Climbing Cleveland Center
07:22PM 43.1750 -78.1408 97° East 244 281 5,100 -540 Level Cleveland Center
07:23PM 43.1869 -78.0453 80° East 257 296 4,100 -1,020 Descending Cleveland Center
07:24PM 43.2058 -77.9578 73° East 241 277 3,100 -720 Descending Cleveland Center
07:25PM 43.2400 -77.8681 62° Northeast 217 250 2,600 -240 Descending Cleveland Center
07:26PM 43.2706 -77.7892 62° Northeast 236 272 2,600  Level Cleveland Center
07:27PM 43.2956 -77.7175 64° Northeast 227 261 2,600  Level Cleveland Center
07:27PM 43.2972 -77.7136 60° Northeast 230 265 2,600  Level Cleveland Center
07:28PM 43.2942 -77.6386 93° East 205 236 2,600  Level Cleveland Center
07:28PM 43.2936 -77.6356 104° East 221 254 2,600 -120 Level Cleveland Center
07:29PM 43.2672 -77.5733 120° Southeast 201 231 2,500 -120 Descending Cleveland Center
07:29PM 43.2661 -77.5725 151° Southeast 213 245 2,500 60 Level Cleveland Center
07:30PM 43.2219 -77.5933 199° South 166 191 2,600 60 Climbing Cleveland Center
07:30PM 43.2211 -77.5917 124° Southeast 185 213 2,600 -660 Level Cleveland Center
07:31PM 43.1814 -77.6261 212° Southwest 154 177 1,900 -840 Descending Cleveland Center
07:32PM 43.1475 -77.6547 212° Southwest 136 157 1,100 -720 Descending Cleveland Center
07:33PM 43.1428 -77.6586 211° Southwest 155 178 1,100 -540 Level Cleveland Center
07:34PM 43.1150 -77.6808 210° Southwest 128 147 500 -600 Descending Cleveland Center